Time,TemperatureF,DewpointF,PressureIn,WindDirection,WindDirectionDegrees,WindSpeedMPH,WindSpeedGustMPH,Humidity,HourlyPrecipIn,Conditions,Clouds,dailyrainin,SolarRadiationWatts/m^2,SoftwareType,DateUTC
2013-03-26 00:02:00,41.0,21.0,-100.00,NNW,336,3.0,15.0,44,0.00,,,0.00,0.000000,,2013-03-26 05:02:00,
2013-03-26 00:12:00,41.0,21.0,-100.00,NNW,336,3.0,15.0,44,0.00,,,0.00,0.000000,,2013-03-26 05:12:00,
2013-03-26 00:42:00,39.0,23.0,-100.00,NNW,341,4.0,10.0,52,0.00,,,0.00,0.000000,,2013-03-26 05:42:00,
2013-03-26 00:52:00,39.0,23.0,-100.00,NNW,341,4.0,10.0,52,0.00,,,0.00,0.000000,,2013-03-26 05:52:00,
2013-03-26 01:02:00,39.0,23.0,-100.00,NNW,341,4.0,10.0,52,0.00,,,0.00,0.000000,,2013-03-26 06:02:00,
2013-03-26 01:12:00,39.0,23.0,-100.00,NNW,341,4.0,10.0,52,0.00,,,0.00,0.000000,,2013-03-26 06:12:00,
2013-03-26 01:43:00,37.0,23.0,-100.00,NNW,332,3.0,7.0,57,0.00,,,0.00,0.000000,,2013-03-26 06:43:00,
2013-03-26 01:52:00,37.0,23.0,-100.00,NNW,332,3.0,7.0,57,0.00,,,0.00,0.000000,,2013-03-26 06:52:00,
2013-03-26 02:02:00,37.0,23.0,-100.00,NNW,332,3.0,7.0,57,0.00,,,0.00,0.000000,,2013-03-26 07:02:00,
2013-03-26 02:12:00,37.0,23.0,-100.00,NNW,332,3.0,7.0,57,0.00,,,0.00,0.000000,,2013-03-26 07:12:00,
2013-03-26 02:43:00,34.0,23.0,-100.00,WNW,285,2.0,6.0,64,0.00,,,0.00,0.000000,,2013-03-26 07:43:00,
2013-03-26 02:53:00,34.0,23.0,-100.00,WNW,285,2.0,6.0,64,0.00,,,0.00,0.000000,,2013-03-26 07:53:00,
2013-03-26 03:02:00,34.0,23.0,-100.00,WNW,285,2.0,6.0,64,0.00,,,0.00,0.000000,,2013-03-26 08:02:00,
2013-03-26 03:12:00,34.0,23.0,-100.00,WNW,285,2.0,6.0,64,0.00,,,0.00,0.000000,,2013-03-26 08:12:00,
2013-03-26 03:42:00,33.0,23.0,-100.00,West,273,2.0,5.0,66,0.00,,,0.00,0.000000,,2013-03-26 08:42:00,
2013-03-26 03:52:00,33.0,23.0,-100.00,West,273,2.0,5.0,66,0.00,,,0.00,0.000000,,2013-03-26 08:52:00,
2013-03-26 04:02:00,33.0,23.0,-100.00,West,273,2.0,5.0,66,0.00,,,0.00,0.000000,,2013-03-26 09:02:00,
2013-03-26 04:12:00,33.0,23.0,-100.00,West,273,2.0,5.0,66,0.00,,,0.00,0.000000,,2013-03-26 09:12:00,
2013-03-26 04:43:00,32.0,24.0,-100.00,West,275,2.0,5.0,71,0.00,,,0.00,0.000000,,2013-03-26 09:43:00,
2013-03-26 04:52:00,32.0,24.0,-100.00,West,275,2.0,5.0,71,0.00,,,0.00,0.000000,,2013-03-26 09:52:00,
2013-03-26 05:02:00,32.0,24.0,-100.00,West,275,2.0,5.0,71,0.00,,,0.00,0.000000,,2013-03-26 10:02:00,
2013-03-26 05:12:00,32.0,24.0,-100.00,West,275,2.0,5.0,71,0.00,,,0.00,0.000000,,2013-03-26 10:12:00,
2013-03-26 05:43:00,32.0,24.0,-100.00,NW,306,3.0,7.0,71,0.00,,,0.00,0.000000,,2013-03-26 10:43:00,
2013-03-26 05:53:00,32.0,24.0,-100.00,NW,306,3.0,7.0,71,0.00,,,0.00,0.000000,,2013-03-26 10:53:00,
2013-03-26 06:03:00,32.0,24.0,-100.00,NW,306,3.0,7.0,71,0.00,,,0.00,0.000000,,2013-03-26 11:03:00,
2013-03-26 06:12:00,32.0,24.0,-100.00,NW,306,3.0,7.0,71,0.00,,,0.00,0.000000,,2013-03-26 11:12:00,
2013-03-26 06:43:00,30.0,23.0,-100.00,West,268,2.0,7.0,74,0.00,,,0.00,0.000000,,2013-03-26 11:43:00,
2013-03-26 06:52:00,30.0,23.0,-100.00,West,268,2.0,7.0,74,0.00,,,0.00,0.000000,,2013-03-26 11:52:00,
2013-03-26 07:03:00,30.0,23.0,-100.00,West,268,2.0,7.0,74,0.00,,,0.00,0.000000,,2013-03-26 12:03:00,
2013-03-26 07:12:00,30.0,23.0,-100.00,West,268,2.0,7.0,74,0.00,,,0.00,0.000000,,2013-03-26 12:12:00,
2013-03-26 07:43:00,30.0,23.0,-100.00,WNW,301,4.0,7.0,76,0.00,,,0.00,7.000000,,2013-03-26 12:43:00,
2013-03-26 07:52:00,30.0,23.0,-100.00,WNW,301,4.0,7.0,76,0.00,,,0.00,7.000000,,2013-03-26 12:52:00,
2013-03-26 08:03:00,30.0,23.0,-100.00,WNW,301,4.0,7.0,76,0.00,,,0.00,7.000000,,2013-03-26 13:03:00,
2013-03-26 08:12:00,30.0,23.0,-100.00,WNW,301,4.0,7.0,76,0.00,,,0.00,7.000000,,2013-03-26 13:12:00,
2013-03-26 08:42:00,38.0,24.0,-100.00,NW,315,7.0,14.0,57,0.00,,,0.00,145.000000,,2013-03-26 13:42:00,
2013-03-26 08:52:00,38.0,24.0,-100.00,NW,315,7.0,14.0,57,0.00,,,0.00,145.000000,,2013-03-26 13:52:00,
2013-03-26 09:02:00,38.0,24.0,-100.00,NW,315,7.0,14.0,57,0.00,,,0.00,145.000000,,2013-03-26 14:02:00,
2013-03-26 09:11:00,38.0,24.0,-100.00,NW,315,7.0,14.0,57,0.00,,,0.00,145.000000,,2013-03-26 14:11:00,
2013-03-26 09:42:00,42.0,24.0,-100.00,NNW,335,8.0,21.0,49,0.00,,,0.00,423.000000,,2013-03-26 14:42:00,
2013-03-26 09:53:00,42.0,24.0,-100.00,NNW,335,8.0,21.0,49,0.00,,,0.00,423.000000,,2013-03-26 14:53:00,
2013-03-26 10:02:00,42.0,24.0,-100.00,NNW,335,8.0,21.0,49,0.00,,,0.00,423.000000,,2013-03-26 15:02:00,
2013-03-26 10:12:00,42.0,24.0,-100.00,NNW,335,8.0,21.0,49,0.00,,,0.00,423.000000,,2013-03-26 15:12:00,
2013-03-26 10:43:00,45.0,22.0,-100.00,NNW,336,10.0,18.0,40,0.00,,,0.00,634.000000,,2013-03-26 15:43:00,
2013-03-26 10:53:00,45.0,22.0,-100.00,NNW,336,10.0,18.0,40,0.00,,,0.00,634.000000,,2013-03-26 15:53:00,
2013-03-26 11:03:00,45.0,22.0,-100.00,NNW,336,10.0,18.0,40,0.00,,,0.00,634.000000,,2013-03-26 16:03:00,
2013-03-26 11:12:00,45.0,22.0,-100.00,NNW,336,10.0,18.0,40,0.00,,,0.00,634.000000,,2013-03-26 16:12:00,
2013-03-26 11:42:00,49.0,22.0,-100.00,NNW,335,7.0,22.0,34,0.00,,,0.00,768.000000,,2013-03-26 16:42:00,
2013-03-26 11:53:00,49.0,22.0,-100.00,NNW,335,7.0,22.0,34,0.00,,,0.00,768.000000,,2013-03-26 16:53:00,
2013-03-26 12:02:00,49.0,22.0,-100.00,NNW,335,7.0,22.0,34,0.00,,,0.00,768.000000,,2013-03-26 17:02:00,
2013-03-26 12:12:00,49.0,22.0,-100.00,NNW,335,7.0,22.0,34,0.00,,,0.00,768.000000,,2013-03-26 17:12:00,
2013-03-26 12:42:00,50.0,21.0,-100.00,NNW,334,9.0,19.0,32,0.00,,,0.00,919.000000,,2013-03-26 17:42:00,
2013-03-26 12:53:00,50.0,21.0,-100.00,NNW,334,9.0,19.0,32,0.00,,,0.00,919.000000,,2013-03-26 17:53:00,
2013-03-26 13:02:00,50.0,21.0,-100.00,NNW,334,9.0,19.0,32,0.00,,,0.00,919.000000,,2013-03-26 18:02:00,
2013-03-26 13:12:00,50.0,21.0,-100.00,NNW,334,9.0,19.0,32,0.00,,,0.00,919.000000,,2013-03-26 18:12:00,
2013-03-26 13:42:00,52.0,22.0,-100.00,NNW,336,9.0,21.0,31,0.00,,,0.00,958.000000,,2013-03-26 18:42:00,
2013-03-26 13:53:00,52.0,22.0,-100.00,NNW,336,9.0,21.0,31,0.00,,,0.00,958.000000,,2013-03-26 18:53:00,
2013-03-26 14:03:00,52.0,22.0,-100.00,NNW,336,9.0,21.0,31,0.00,,,0.00,958.000000,,2013-03-26 19:03:00,
2013-03-26 14:12:00,52.0,22.0,-100.00,NNW,336,9.0,21.0,31,0.00,,,0.00,958.000000,,2013-03-26 19:12:00,
2013-03-26 14:42:00,55.0,23.0,-100.00,NNW,336,7.0,23.0,29,0.00,,,0.00,927.000000,,2013-03-26 19:42:00,
2013-03-26 14:53:00,55.0,23.0,-100.00,NNW,336,7.0,23.0,29,0.00,,,0.00,927.000000,,2013-03-26 19:53:00,
2013-03-26 15:02:00,55.0,23.0,-100.00,NNW,336,7.0,23.0,29,0.00,,,0.00,927.000000,,2013-03-26 20:02:00,
2013-03-26 15:12:00,55.0,23.0,-100.00,NNW,336,7.0,23.0,29,0.00,,,0.00,927.000000,,2013-03-26 20:12:00,
2013-03-26 15:43:00,55.0,23.0,-100.00,NNW,336,8.0,19.0,28,0.00,,,0.00,814.000000,,2013-03-26 20:43:00,
2013-03-26 15:52:00,55.0,23.0,-100.00,NNW,336,8.0,19.0,28,0.00,,,0.00,814.000000,,2013-03-26 20:52:00,
2013-03-26 16:02:00,55.0,23.0,-100.00,NNW,336,8.0,19.0,28,0.00,,,0.00,814.000000,,2013-03-26 21:02:00,
2013-03-26 16:12:00,55.0,23.0,-100.00,NNW,336,8.0,19.0,28,0.00,,,0.00,814.000000,,2013-03-26 21:12:00,
2013-03-26 16:43:00,55.0,23.0,-100.00,NNW,343,8.0,20.0,28,0.00,,,0.00,509.000000,,2013-03-26 21:43:00,
2013-03-26 16:52:00,55.0,23.0,-100.00,NNW,343,8.0,20.0,28,0.00,,,0.00,509.000000,,2013-03-26 21:52:00,
2013-03-26 17:02:00,55.0,23.0,-100.00,NNW,343,8.0,20.0,28,0.00,,,0.00,509.000000,,2013-03-26 22:02:00,
2013-03-26 17:12:00,55.0,23.0,-100.00,NNW,343,8.0,20.0,28,0.00,,,0.00,509.000000,,2013-03-26 22:12:00,
2013-03-26 17:42:00,54.0,22.0,-100.00,North,353,9.0,18.0,29,0.00,,,0.00,398.000000,,2013-03-26 22:42:00,
2013-03-26 17:52:00,54.0,22.0,-100.00,North,353,9.0,18.0,29,0.00,,,0.00,398.000000,,2013-03-26 22:52:00,
2013-03-26 18:01:00,54.0,22.0,-100.00,North,353,9.0,18.0,29,0.00,,,0.00,398.000000,,2013-03-26 23:01:00,
2013-03-26 18:10:00,54.0,22.0,-100.00,North,353,9.0,18.0,29,0.00,,,0.00,398.000000,,2013-03-26 23:10:00,
2013-03-26 18:43:00,50.0,23.0,-100.00,NNW,344,7.0,14.0,35,0.00,,,0.00,162.000000,,2013-03-26 23:43:00,
2013-03-26 18:53:00,50.0,23.0,-100.00,NNW,344,7.0,14.0,35,0.00,,,0.00,162.000000,,2013-03-26 23:53:00,
2013-03-26 19:02:00,50.0,23.0,-100.00,NNW,344,7.0,14.0,35,0.00,,,0.00,162.000000,,2013-03-27 00:02:00,
2013-03-26 19:12:00,50.0,23.0,-100.00,NNW,344,7.0,14.0,35,0.00,,,0.00,162.000000,,2013-03-27 00:12:00,
2013-03-26 19:42:00,46.0,24.0,-100.00,NNW,346,6.0,16.0,41,0.00,,,0.00,14.000000,,2013-03-27 00:42:00,
2013-03-26 19:52:00,46.0,24.0,-100.00,NNW,346,6.0,16.0,41,0.00,,,0.00,14.000000,,2013-03-27 00:52:00,
2013-03-26 20:02:00,46.0,24.0,-100.00,NNW,346,6.0,16.0,41,0.00,,,0.00,14.000000,,2013-03-27 01:02:00,
2013-03-26 20:12:00,46.0,24.0,-100.00,NNW,346,6.0,16.0,41,0.00,,,0.00,14.000000,,2013-03-27 01:12:00,
2013-03-26 20:43:00,43.0,25.0,-100.00,NNW,347,4.0,12.0,49,0.00,,,0.00,0.000000,,2013-03-27 01:43:00,
2013-03-26 20:53:00,43.0,25.0,-100.00,NNW,347,4.0,12.0,49,0.00,,,0.00,0.000000,,2013-03-27 01:53:00,
2013-03-26 21:03:00,43.0,25.0,-100.00,NNW,347,4.0,12.0,49,0.00,,,0.00,0.000000,,2013-03-27 02:03:00,
2013-03-26 21:12:00,43.0,25.0,-100.00,NNW,347,4.0,12.0,49,0.00,,,0.00,0.000000,,2013-03-27 02:12:00,
2013-03-26 21:42:00,41.0,25.0,-100.00,NNW,328,4.0,8.0,52,0.00,,,0.00,0.000000,,2013-03-27 02:42:00,
2013-03-26 21:53:00,41.0,25.0,-100.00,NNW,328,4.0,8.0,52,0.00,,,0.00,0.000000,,2013-03-27 02:53:00,
2013-03-26 22:02:00,41.0,25.0,-100.00,NNW,328,4.0,8.0,52,0.00,,,0.00,0.000000,,2013-03-27 03:02:00,
2013-03-26 22:12:00,41.0,25.0,-100.00,NNW,328,4.0,8.0,52,0.00,,,0.00,0.000000,,2013-03-27 03:12:00,
2013-03-26 22:43:00,40.0,26.0,-100.00,NNW,336,3.0,9.0,57,0.00,,,0.00,0.000000,,2013-03-27 03:43:00,
2013-03-26 22:53:00,40.0,26.0,-100.00,NNW,336,3.0,9.0,57,0.00,,,0.00,0.000000,,2013-03-27 03:53:00,
2013-03-26 23:02:00,40.0,26.0,-100.00,NNW,336,3.0,9.0,57,0.00,,,0.00,0.000000,,2013-03-27 04:02:00,
2013-03-26 23:13:00,40.0,26.0,-100.00,NNW,336,3.0,9.0,57,0.00,,,0.00,0.000000,,2013-03-27 04:13:00,
2013-03-26 23:43:00,38.0,26.0,-100.00,NNW,343,3.0,8.0,62,0.00,,,0.00,0.000000,,2013-03-27 04:43:00,
2013-03-26 23:52:00,38.0,26.0,-100.00,NNW,343,3.0,8.0,62,0.00,,,0.00,0.000000,,2013-03-27 04:52:00,